Time;durP1;ratioP1;P1;durP2;ratioP2;P2;SDS_P1;SDS_P2;PMS_P1;PMS_P2;Temp;Humidity;BMP_temperature;BMP_pressure;BME280_temperature;BME280_humidity;BME280_pressure;Samples;Min_cycle;Max_cycle;Signal;HPM_P1;HPM_P2
2022/01/19 00:00:50;;;;;;;7.97;6.47;;;7.00;1.00;;;;;;5065673;28;20383;-59
2022/01/19 00:03:16;;;;;;;9.07;6.70;;;6.90;1.00;;;;;;5067430;28;20482;-57
2022/01/19 00:05:43;;;;;;;9.10;7.53;;;6.90;1.00;;;;;;5064930;28;20476;-58
2022/01/19 00:08:10;;;;;;;9.63;6.67;;;6.90;1.00;;;;;;5067446;28;20455;-59
2022/01/19 00:10:35;;;;;;;8.07;6.57;;;6.90;1.00;;;;;;5072613;28;21531;-58
2022/01/19 00:13:01;;;;;;;11.40;7.43;;;6.90;1.00;;;;;;5074685;28;20443;-57
2022/01/19 00:15:28;;;;;;;7.70;6.70;;;6.90;1.00;;;;;;5070921;28;20186;-58
2022/01/19 00:17:56;;;;;;;9.03;6.40;;;6.90;1.00;;;;;;5074162;28;20286;-58
2022/01/19 00:20:22;;;;;;;8.87;7.33;;;6.90;1.00;;;;;;5075900;28;20807;-57
2022/01/19 00:22:48;;;;;;;8.37;6.93;;;;;;;;;;5074797;28;20438;-59
2022/01/19 00:25:14;;;;;;;11.30;6.70;;;6.80;1.00;;;;;;5077800;28;20471;-58
2022/01/19 00:27:39;;;;;;;11.57;7.83;;;6.80;1.00;;;;;;5071113;28;22107;-57
2022/01/19 00:30:06;;;;;;;8.90;6.63;;;7.00;1.00;;;;;;5074624;28;20192;-57
2022/01/19 00:32:32;;;;;;;9.07;6.30;;;6.90;1.00;;;;;;5073646;28;20195;-57
2022/01/19 00:34:58;;;;;;;11.43;7.37;;;6.90;1.00;;;;;;5079626;28;20418;-57
2022/01/19 00:37:24;;;;;;;8.50;7.03;;;6.90;1.00;;;;;;5065208;28;20448;-56
2022/01/19 00:39:50;;;;;;;8.97;6.70;;;6.80;1.00;;;;;;5071172;28;20244;-58
2022/01/19 00:42:16;;;;;;;9.33;6.37;;;6.80;1.00;;;;;;5068816;28;20837;-57
2022/01/19 00:44:41;;;;;;;8.10;6.30;;;6.90;1.00;;;;;;5074431;28;20544;-56
2022/01/19 00:47:07;;;;;;;11.20;6.90;;;;;;;;;;5072671;28;20193;-58
2022/01/19 00:49:33;;;;;;;9.73;7.40;;;6.90;1.00;;;;;;5070892;28;20180;-58
2022/01/19 00:51:58;;;;;;;9.87;6.80;;;6.90;1.00;;;;;;5076556;28;20439;-58
2022/01/19 00:54:24;;;;;;;11.00;6.93;;;6.90;1.00;;;;;;5075468;28;20183;-59
2022/01/19 00:56:49;;;;;;;9.37;6.43;;;6.90;1.00;;;;;;5073865;28;20194;-57
2022/01/19 00:59:15;;;;;;;7.97;6.47;;;7.00;1.00;;;;;;5072259;28;20192;-58
2022/01/19 01:01:40;;;;;;;9.37;6.87;;;7.00;1.00;;;;;;5068300;28;20248;-58
2022/01/19 01:04:06;;;;;;;10.20;7.67;;;7.00;1.00;;;;;;5070884;28;20188;-58
2022/01/19 01:06:32;;;;;;;8.80;6.30;;;7.00;1.00;;;;;;5070063;28;20243;-59
2022/01/19 01:08:58;;;;;;;7.70;7.00;;;7.00;1.00;;;;;;5071859;28;20231;-56
2022/01/19 01:11:29;;;;;;;9.00;6.27;;;7.00;1.00;;;;;;5072534;28;20914;-58
2022/01/19 01:19:01;;;;;;;7.83;6.40;;;6.90;1.00;;;;;;5071745;28;20428;-58
2022/01/19 01:21:26;;;;;;;7.83;6.50;;;6.90;1.00;;;;;;5070118;28;20970;-56
2022/01/19 01:23:52;;;;;;;9.77;6.30;;;6.90;1.00;;;;;;5073492;28;20424;-56
2022/01/19 01:26:17;;;;;;;11.03;6.37;;;6.90;1.00;;;;;;5061559;28;20255;-57
2022/01/19 01:28:43;;;;;;;8.83;6.40;;;6.90;1.00;;;;;;5061808;28;20258;-58
2022/01/19 01:31:09;;;;;;;9.77;6.63;;;6.90;1.00;;;;;;5061320;28;20192;-57
2022/01/19 01:33:35;;;;;;;10.03;7.70;;;6.90;1.00;;;;;;5061123;28;20581;-58
2022/01/19 01:36:02;;;;;;;7.63;5.83;;;7.10;1.00;;;;;;5040353;28;21876;-58
2022/01/19 01:38:27;;;;;;;9.13;6.40;;;7.20;1.00;;;;;;5059563;28;20448;-58
2022/01/19 01:40:53;;;;;;;12.57;7.97;;;7.20;1.00;;;;;;5060403;28;20452;-58
2022/01/19 01:43:18;;;;;;;8.30;6.40;;;7.10;1.00;;;;;;5061698;28;20187;-57
2022/01/19 01:45:47;;;;;;;11.17;7.40;;;7.20;1.00;;;;;;5067876;28;20645;-58
2022/01/19 01:48:20;;;;;;;9.80;7.53;;;7.20;1.00;;;;;;5067199;28;20187;-58
2022/01/19 01:53:33;;;;;;;8.10;6.17;;;7.20;1.00;;;;;;5061748;28;20465;-56
2022/01/19 01:56:04;;;;;;;12.90;7.87;;;7.20;1.00;;;;;;5060727;28;20472;-58
2022/01/19 01:58:33;;;;;;;8.07;6.80;;;7.20;1.00;;;;;;5061901;28;21267;-58
2022/01/19 02:00:59;;;;;;;10.57;6.90;;;7.00;1.00;;;;;;5059360;28;20685;-58
2022/01/19 02:03:26;;;;;;;9.10;7.00;;;7.10;1.00;;;;;;5061325;28;21060;-58
2022/01/19 02:08:54;;;;;;;9.87;6.50;;;7.10;1.00;;;;;;5058651;28;20483;-58
2022/01/19 02:21:36;;;;;;;10.97;7.53;;;7.00;1.00;;;;;;5060821;28;20536;-57
2022/01/19 02:22:13;;;;;;;11.17;7.50;;;7.00;1.00;;;;;;5060897;28;20484;-59
2022/01/19 02:24:45;;;;;;;10.27;7.70;;;;;;;;;;5061997;28;22124;-58
2022/01/19 02:30:49;;;;;;;12.73;7.27;;;7.10;1.00;;;;;;4993953;28;20511;-59
2022/01/19 02:41:18;;;;;;;10.53;7.20;;;7.00;1.00;;;;;;5059605;28;20467;-57
2022/01/19 02:43:49;;;;;;;10.80;6.60;;;7.00;1.00;;;;;;5060741;28;20449;-58
2022/01/19 02:46:39;;;;;;;10.20;7.83;;;6.90;1.00;;;;;;5059180;28;20225;-57
2022/01/19 02:49:15;;;;;;;8.40;6.67;;;7.00;1.00;;;;;;5059786;28;20837;-58
2022/01/19 02:51:43;;;;;;;10.20;6.60;;;7.00;1.00;;;;;;5061144;28;20444;-59
2022/01/19 02:54:13;;;;;;;9.13;6.73;;;6.90;1.00;;;;;;5061671;28;20419;-59
2022/01/19 02:56:41;;;;;;;7.93;6.37;;;6.90;1.00;;;;;;5061716;28;20773;-57
2022/01/19 02:59:19;;;;;;;10.10;7.10;;;;;;;;;;5057455;28;20808;-57
2022/01/19 03:09:42;;;;;;;11.70;7.30;;;6.70;1.00;;;;;;5074352;28;21005;-58
2022/01/19 03:12:09;;;;;;;8.73;6.30;;;6.80;1.00;;;;;;5058634;28;20493;-58
2022/01/19 03:14:35;;;;;;;10.33;6.97;;;6.70;1.00;;;;;;5059163;28;20478;-58
2022/01/19 03:17:01;;;;;;;8.73;7.10;;;6.70;1.00;;;;;;5057169;28;20458;-58
2022/01/19 03:19:28;;;;;;;10.60;6.93;;;6.50;1.00;;;;;;5059727;28;21168;-58
2022/01/19 03:21:54;;;;;;;9.87;7.63;;;6.60;1.00;;;;;;5058495;28;20190;-57
2022/01/19 03:24:20;;;;;;;16.40;7.20;;;6.60;1.00;;;;;;5057711;28;20538;-56
2022/01/19 03:26:46;;;;;;;10.53;7.83;;;6.60;1.00;;;;;;5060491;28;20179;-57
2022/01/19 03:29:12;;;;;;;12.53;8.73;;;;;;;;;;5057411;28;21078;-56
2022/01/19 03:31:37;;;;;;;16.93;8.27;;;6.60;1.00;;;;;;5069480;28;20278;-57
2022/01/19 03:34:03;;;;;;;10.83;7.83;;;6.60;1.00;;;;;;5070122;28;20535;-58
2022/01/19 03:36:29;;;;;;;9.17;7.17;;;6.60;1.00;;;;;;5053826;28;20211;-59
2022/01/19 03:38:55;;;;;;;12.83;7.90;;;6.70;1.00;;;;;;5058007;28;20427;-57
2022/01/19 03:41:20;;;;;;;15.50;8.40;;;6.70;1.00;;;;;;5068093;28;20190;-59
2022/01/19 03:43:46;;;;;;;11.53;7.97;;;6.70;1.00;;;;;;5069245;28;20235;-58
2022/01/19 03:46:16;;;;;;;11.83;8.60;;;6.60;1.00;;;;;;5071051;28;20214;-58
2022/01/19 03:51:12;;;;;;;13.77;8.00;;;6.60;1.00;;;;;;5073391;28;20989;-56
2022/01/19 03:53:39;;;;;;;10.47;8.00;;;6.30;1.00;;;;;;5066119;28;20546;-57
2022/01/19 03:56:05;;;;;;;9.10;7.97;;;6.20;1.00;;;;;;5065026;28;20535;-57
2022/01/19 03:58:31;;;;;;;10.27;8.30;;;6.10;1.00;;;;;;5069178;28;20452;-58
2022/01/19 04:00:58;;;;;;;11.33;7.90;;;6.00;1.00;;;;;;5060801;28;20496;-58
2022/01/19 04:06:29;;;;;;;11.33;7.80;;;5.90;1.00;;;;;;5075090;28;20479;-56
2022/01/19 04:08:55;;;;;;;9.87;7.60;;;5.90;1.00;;;;;;5073797;28;20475;-58
2022/01/19 04:11:22;;;;;;;11.30;7.77;;;5.70;1.00;;;;;;5073547;28;20437;-56
2022/01/19 04:14:34;;;;;;;12.63;8.80;;;5.60;1.00;;;;;;5075921;28;20460;-56
2022/01/19 04:16:35;;;;;;;11.57;7.73;;;;;;;;;;5070826;28;20475;-56
2022/01/19 04:19:43;;;;;;;13.33;7.93;;;5.50;1.00;;;;;;5074475;28;20478;-59
2022/01/19 04:21:50;;;;;;;11.57;8.00;;;5.50;1.00;;;;;;5064945;28;20496;-57
2022/01/19 04:24:17;;;;;;;10.07;8.03;;;5.50;1.00;;;;;;5075177;28;20476;-58
2022/01/19 04:26:44;;;;;;;11.40;8.20;;;5.40;1.00;;;;;;5074603;28;20416;-56
2022/01/19 04:29:09;;;;;;;12.30;8.30;;;5.50;1.00;;;;;;5077041;28;20437;-58
2022/01/19 04:31:35;;;;;;;15.20;9.53;;;5.40;1.00;;;;;;5071948;28;20438;-58
2022/01/19 04:34:04;;;;;;;13.47;9.03;;;5.30;1.00;;;;;;5077160;28;20188;-58
2022/01/19 04:44:52;;;;;;;11.93;7.93;;;5.30;1.00;;;;;;5070105;28;20191;-57
2022/01/19 05:04:10;;;;;;;12.20;8.00;;;5.20;1.00;;;;;;5073427;28;20640;-55
2022/01/19 05:06:14;;;;;;;13.83;8.07;;;5.20;1.00;;;;;;5064964;28;20434;-55
2022/01/19 05:13:56;;;;;;;13.00;9.60;;;5.10;1.00;;;;;;5072659;28;20501;-55
2022/01/19 05:16:23;;;;;;;14.37;9.97;;;5.00;1.00;;;;;;5059443;28;20446;-57
2022/01/19 05:18:50;;;;;;;13.73;9.50;;;4.90;1.00;;;;;;5073741;28;20184;-57
2022/01/19 05:21:16;;;;;;;12.67;9.17;;;3.10;1.00;;;;;;5080858;28;20453;-57
2022/01/19 05:23:42;;;;;;;16.87;11.50;;;4.70;1.00;;;;;;5073620;28;20445;-57
2022/01/19 05:26:07;;;;;;;14.90;10.00;;;4.70;1.00;;;;;;5076559;28;20441;-55
2022/01/19 05:28:33;;;;;;;11.30;8.97;;;4.60;1.00;;;;;;5073820;28;20447;-57
2022/01/19 05:30:59;;;;;;;16.00;9.57;;;;;;;;;;5077376;28;20265;-57
2022/01/19 05:33:25;;;;;;;12.87;9.40;;;4.60;1.00;;;;;;5079684;28;20442;-56
2022/01/19 05:35:50;;;;;;;17.40;9.70;;;4.60;1.00;;;;;;5076916;28;21007;-56
2022/01/19 05:38:16;;;;;;;16.90;10.90;;;4.60;1.00;;;;;;5075551;28;20188;-57
2022/01/19 05:40:41;;;;;;;15.83;10.50;;;4.50;1.00;;;;;;5083844;28;20191;-57
2022/01/19 05:43:07;;;;;;;15.33;9.10;;;4.50;1.00;;;;;;5072876;28;20181;-56
2022/01/19 05:45:34;;;;;;;13.93;9.37;;;4.50;1.00;;;;;;5076813;28;20198;-55
2022/01/19 05:48:00;;;;;;;18.50;10.67;;;4.50;1.00;;;;;;5077137;28;20190;-57
2022/01/19 05:50:26;;;;;;;16.97;9.93;;;4.50;1.00;;;;;;5074831;28;20862;-57
2022/01/19 05:52:52;;;;;;;15.87;10.90;;;4.50;2.90;;;;;;5086717;28;20449;-58
2022/01/19 05:55:18;;;;;;;16.13;10.47;;;4.50;1.00;;;;;;5061233;28;20438;-56
2022/01/19 05:57:43;;;;;;;15.67;11.03;;;4.50;1.00;;;;;;5078753;28;20184;-58
2022/01/19 06:00:10;;;;;;;17.53;11.07;;;4.50;1.80;;;;;;5073229;28;21114;-56
2022/01/19 06:02:36;;;;;;;17.73;10.97;;;4.40;1.00;;;;;;5072995;28;20628;-57
2022/01/19 06:05:03;;;;;;;17.37;11.90;;;4.40;1.00;;;;;;5071529;28;21177;-56
2022/01/19 06:07:30;;;;;;;16.03;10.20;;;4.40;1.00;;;;;;5074170;28;20731;-57
2022/01/19 06:10:07;;;;;;;16.20;10.37;;;4.30;1.00;;;;;;5071595;28;20509;-56
2022/01/19 06:12:33;;;;;;;15.00;11.20;;;4.30;1.00;;;;;;5067467;28;20839;-57
2022/01/19 06:15:00;;;;;;;14.00;10.60;;;4.30;1.00;;;;;;5081431;28;20447;-57
2022/01/19 06:17:26;;;;;;;17.30;11.40;;;4.30;1.00;;;;;;5080549;28;20188;-57
2022/01/19 06:19:52;;;;;;;15.00;10.70;;;4.30;1.00;;;;;;5072485;28;21854;-56
2022/01/19 06:22:18;;;;;;;18.60;12.63;;;4.30;9.80;;;;;;5073205;28;20434;-57
2022/01/19 06:24:44;;;;;;;19.60;12.90;;;4.30;10.30;;;;;;5071360;28;20228;-57
2022/01/19 06:27:11;;;;;;;18.57;11.30;;;4.20;8.30;;;;;;5081205;28;20422;-57
2022/01/19 06:29:36;;;;;;;18.23;11.10;;;4.30;5.40;;;;;;5091119;28;20189;-56
2022/01/19 06:32:02;;;;;;;18.17;11.43;;;4.30;1.00;;;;;;5083079;28;20446;-58
2022/01/19 06:34:28;;;;;;;18.33;11.50;;;4.20;1.00;;;;;;5070482;28;20179;-56
2022/01/19 06:36:53;;;;;;;22.17;11.53;;;4.20;1.00;;;;;;5080695;28;20522;-57
2022/01/19 06:39:19;;;;;;;17.50;11.23;;;4.20;1.00;;;;;;5088528;28;20185;-57
2022/01/19 06:41:46;;;;;;;18.77;11.13;;;4.20;1.00;;;;;;5078906;28;20644;-57
2022/01/19 06:44:14;;;;;;;16.50;10.63;;;4.20;1.00;;;;;;5086516;28;20464;-55
2022/01/19 06:46:42;;;;;;;16.23;9.83;;;4.20;1.00;;;;;;5090727;28;20532;-57
2022/01/19 06:49:07;;;;;;;19.90;11.07;;;4.20;1.00;;;;;;5086334;28;20445;-58
2022/01/19 06:51:33;;;;;;;15.30;10.83;;;4.10;1.00;;;;;;5090442;28;20421;-56
2022/01/19 06:53:58;;;;;;;24.00;12.80;;;4.20;1.00;;;;;;5090629;28;20518;-57
2022/01/19 06:56:24;;;;;;;29.03;14.30;;;4.20;1.00;;;;;;5090146;28;20207;-55
2022/01/19 06:58:50;;;;;;;18.17;12.37;;;4.20;1.00;;;;;;5081529;28;20226;-57
2022/01/19 07:01:16;;;;;;;19.07;12.20;;;;;;;;;;5072635;28;20179;-58
2022/01/19 07:03:41;;;;;;;20.60;13.30;;;4.00;1.00;;;;;;5073939;28;20199;-57
2022/01/19 07:06:11;;;;;;;15.27;12.20;;;4.10;1.00;;;;;;5070175;28;20545;-55
2022/01/19 07:08:40;;;;;;;17.93;12.40;;;4.10;1.00;;;;;;5089116;28;20181;-57
2022/01/19 07:11:06;;;;;;;17.10;11.63;;;4.10;1.00;;;;;;5075483;28;20522;-57
2022/01/19 07:13:32;;;;;;;20.07;12.57;;;4.10;1.00;;;;;;5081874;28;20441;-58
2022/01/19 07:15:58;;;;;;;20.27;12.50;;;4.10;1.00;;;;;;5073680;28;20438;-57
2022/01/19 07:18:23;;;;;;;16.13;12.70;;;4.00;1.00;;;;;;5075816;28;20548;-57
2022/01/19 07:20:49;;;;;;;18.73;12.77;;;;;;;;;;5069271;28;20189;-56
2022/01/19 07:23:15;;;;;;;20.50;13.03;;;4.00;1.00;;;;;;5060930;28;20234;-59
2022/01/19 07:25:40;;;;;;;19.73;13.17;;;4.00;1.00;;;;;;5069616;28;20494;-57
2022/01/19 07:28:08;;;;;;;18.30;12.63;;;4.10;1.00;;;;;;5072242;28;20268;-58
2022/01/19 07:30:34;;;;;;;17.20;11.90;;;3.90;1.00;;;;;;5076795;28;20183;-58
2022/01/19 07:33:00;;;;;;;19.20;11.47;;;3.90;1.00;;;;;;5070119;28;20475;-58
2022/01/19 07:35:26;;;;;;;16.70;10.87;;;4.00;1.00;;;;;;5070155;28;20546;-58
2022/01/19 07:37:52;;;;;;;17.67;11.27;;;;;;;;;;5071946;28;20187;-58
2022/01/19 07:40:18;;;;;;;20.40;14.00;;;3.90;1.00;;;;;;5069998;28;20261;-57
2022/01/19 07:42:44;;;;;;;17.37;12.17;;;3.90;1.00;;;;;;5090057;28;20515;-58
2022/01/19 07:45:10;;;;;;;18.47;13.03;;;3.90;1.00;;;;;;5073738;28;20213;-57
2022/01/19 07:47:36;;;;;;;18.50;13.03;;;3.90;1.00;;;;;;5069861;28;20179;-57
2022/01/19 07:50:01;;;;;;;20.03;13.70;;;3.90;1.00;;;;;;5069552;28;20461;-57
2022/01/19 07:52:27;;;;;;;22.40;13.80;;;4.00;1.00;;;;;;5069821;28;20179;-57
2022/01/19 07:54:53;;;;;;;19.83;13.40;;;3.90;1.00;;;;;;5087854;28;20188;-57
2022/01/19 07:57:19;;;;;;;18.40;13.80;;;4.00;1.00;;;;;;5089660;28;20190;-56
2022/01/19 07:59:45;;;;;;;18.73;11.70;;;4.10;1.00;;;;;;5081004;28;20442;-56
2022/01/19 08:02:12;;;;;;;24.23;15.70;;;;;;;;;;5091578;28;20497;-57
2022/01/19 08:04:38;;;;;;;26.70;14.27;;;;;;;;;;5071275;28;20185;-57
2022/01/19 08:07:04;;;;;;;21.73;14.70;;;4.00;1.00;;;;;;5073294;28;20837;-56
2022/01/19 08:09:31;;;;;;;21.60;14.13;;;4.00;1.00;;;;;;5070926;28;20443;-56
2022/01/19 08:11:57;;;;;;;23.10;15.27;;;4.00;1.00;;;;;;5083160;28;20930;-56
2022/01/19 08:14:24;;;;;;;21.27;14.27;;;4.00;1.00;;;;;;5069800;28;20507;-58
2022/01/19 08:16:54;;;;;;;25.83;15.43;;;4.10;1.00;;;;;;5080763;28;20438;-58
2022/01/19 08:22:46;;;;;;;24.20;15.20;;;4.20;1.00;;;;;;5053254;28;20514;-58
2022/01/19 08:25:12;;;;;;;22.33;14.43;;;4.20;1.00;;;;;;5086793;28;20891;-58
2022/01/19 08:27:38;;;;;;;20.40;14.63;;;4.30;1.00;;;;;;5078425;28;20215;-58
2022/01/19 08:30:07;;;;;;;25.40;16.03;;;4.40;1.00;;;;;;5074035;28;20930;-58
2022/01/19 08:32:35;;;;;;;22.47;15.97;;;4.40;1.00;;;;;;5073093;28;20268;-58
2022/01/19 08:35:05;;;;;;;22.73;16.10;;;4.40;1.00;;;;;;5090207;28;20434;-58
2022/01/19 08:37:31;;;;;;;21.63;15.17;;;4.50;1.00;;;;;;5079692;28;20442;-58
2022/01/19 08:39:57;;;;;;;27.83;15.70;;;4.60;1.00;;;;;;5083875;28;20426;-59
2022/01/19 08:42:23;;;;;;;28.73;17.20;;;;;;;;;;5083755;28;20461;-58
2022/01/19 08:44:50;;;;;;;22.30;15.37;;;;;;;;;;5083670;28;20527;-59
2022/01/19 08:47:15;;;;;;;22.90;14.70;;;4.60;1.00;;;;;;5078227;28;20497;-59
2022/01/19 08:49:41;;;;;;;28.10;16.07;;;4.70;1.00;;;;;;5077130;28;20555;-59
2022/01/19 08:52:07;;;;;;;22.30;15.37;;;4.80;1.00;;;;;;5085556;28;20210;-58
2022/01/19 08:54:33;;;;;;;23.80;17.30;;;4.80;1.00;;;;;;5085126;28;21364;-58
2022/01/19 08:57:04;;;;;;;22.67;15.83;;;4.80;1.00;;;;;;5076758;28;20627;-59
2022/01/19 08:59:30;;;;;;;24.67;17.10;;;4.90;1.00;;;;;;5079357;28;20179;-59
2022/01/19 09:01:56;;;;;;;20.67;15.07;;;5.00;1.00;;;;;;5055904;28;20436;-58
2022/01/19 09:04:22;;;;;;;20.93;15.23;;;5.00;1.00;;;;;;5079159;28;20608;-58
2022/01/19 09:06:47;;;;;;;22.97;15.10;;;5.10;1.00;;;;;;5076114;28;20671;-58
2022/01/19 09:09:13;;;;;;;21.00;14.20;;;;;;;;;;5080441;28;20188;-58
2022/01/19 09:11:39;;;;;;;23.57;15.50;;;5.40;1.00;;;;;;5079251;28;20549;-59
2022/01/19 09:14:06;;;;;;;19.47;13.80;;;5.50;1.00;;;;;;5077870;28;20546;-59
2022/01/19 09:16:33;;;;;;;19.00;14.23;;;5.50;1.00;;;;;;5077158;28;20233;-59
2022/01/19 09:18:59;;;;;;;20.30;14.87;;;;;;;;;;5066083;28;20446;-58
2022/01/19 09:21:24;;;;;;;26.77;15.17;;;5.70;1.00;;;;;;5076462;28;20565;-58
2022/01/19 09:23:50;;;;;;;22.33;16.10;;;5.80;1.00;;;;;;5068749;28;20586;-59
2022/01/19 09:26:16;;;;;;;19.40;14.30;;;5.80;1.00;;;;;;5080124;28;20228;-58
2022/01/19 09:28:42;;;;;;;23.40;15.23;;;;;;;;;;5082953;28;20665;-58
2022/01/19 09:31:11;;;;;;;23.13;15.77;;;5.90;1.00;;;;;;5085106;28;20638;-58
2022/01/19 09:33:37;;;;;;;19.97;14.10;;;6.10;1.00;;;;;;5074866;28;20421;-58
2022/01/19 09:36:07;;;;;;;20.90;15.27;;;7.20;1.00;;;;;;5072720;28;20998;-59
2022/01/19 09:38:36;;;;;;;19.23;13.30;;;7.50;1.00;;;;;;5076471;28;20422;-59
2022/01/19 09:41:02;;;;;;;17.27;14.03;;;8.90;1.00;;;;;;5080395;28;20452;-58
2022/01/19 09:43:28;;;;;;;17.20;14.20;;;9.00;1.00;;;;;;5071481;28;20418;-59
2022/01/19 09:45:56;;;;;;;18.33;14.47;;;8.90;1.00;;;;;;5081211;28;20819;-59
2022/01/19 09:48:22;;;;;;;15.97;12.57;;;8.30;1.00;;;;;;5075324;28;20709;-58
2022/01/19 09:50:48;;;;;;;18.57;13.73;;;;;;;;;;5080479;28;20923;-59
2022/01/19 09:53:14;;;;;;;17.57;13.10;;;8.60;1.00;;;;;;5087938;28;20476;-60
2022/01/19 09:55:43;;;;;;;13.70;11.67;;;8.60;1.00;;;;;;5081907;28;20808;-58
2022/01/19 09:58:09;;;;;;;16.80;13.30;;;9.10;1.00;;;;;;5076303;28;20456;-58
2022/01/19 10:00:36;;;;;;;18.70;13.90;;;9.90;1.00;;;;;;5082452;28;20436;-59
2022/01/19 10:03:21;;;;;;;17.23;12.87;;;;;;;;;;5074534;28;20411;-59
2022/01/19 10:05:52;;;;;;;16.23;12.67;;;8.90;1.00;;;;;;5075584;28;20464;-53
2022/01/19 10:08:28;;;;;;;16.10;12.20;;;8.00;1.00;;;;;;5079856;28;20441;-62
2022/01/19 10:17:00;;;;;;;15.97;12.80;;;7.10;1.00;;;;;;5079549;28;20909;-62
2022/01/19 10:19:50;;;;;;;14.13;10.60;;;7.20;1.00;;;;;;5074649;28;20488;-63
2022/01/19 10:22:20;;;;;;;13.50;9.70;;;7.20;1.00;;;;;;5081174;28;20429;-62
2022/01/19 10:24:50;;;;;;;11.30;9.40;;;7.00;1.00;;;;;;5070742;28;20950;-61
2022/01/19 10:27:45;;;;;;;12.67;10.03;;;7.10;1.00;;;;;;5053833;28;20426;-62
2022/01/19 10:30:18;;;;;;;14.83;10.47;;;7.00;1.00;;;;;;5058056;28;20738;-61
2022/01/19 10:32:45;;;;;;;12.80;9.70;;;6.90;1.00;;;;;;5085019;28;20938;-62
2022/01/19 10:35:22;;;;;;;12.60;9.97;;;6.90;1.00;;;;;;5084652;28;20484;-62
2022/01/19 10:38:04;;;;;;;12.33;8.83;;;7.20;1.00;;;;;;5071803;28;20802;-62
2022/01/19 10:40:30;;;;;;;15.37;8.83;;;7.30;1.00;;;;;;5077781;28;20439;-61
2022/01/19 10:42:56;;;;;;;14.07;9.50;;;7.30;1.00;;;;;;5070829;28;20795;-62
2022/01/19 10:45:21;;;;;;;13.13;10.80;;;7.30;1.00;;;;;;5079663;28;20491;-62
2022/01/19 10:47:56;;;;;;;10.40;8.60;;;7.50;1.00;;;;;;5080592;28;20196;-60
2022/01/19 10:50:29;;;;;;;12.23;8.93;;;7.40;1.00;;;;;;5076167;28;20276;-61
2022/01/19 10:53:00;;;;;;;15.00;10.53;;;7.40;1.00;;;;;;5071301;28;20406;-63
2022/01/19 10:55:31;;;;;;;13.43;9.83;;;7.40;1.00;;;;;;5069323;28;20434;-61
2022/01/19 10:57:59;;;;;;;15.70;10.60;;;7.60;1.00;;;;;;5070082;28;20510;-62
2022/01/19 11:00:30;;;;;;;12.67;9.43;;;7.70;1.00;;;;;;5070179;28;20469;-62
2022/01/19 11:02:58;;;;;;;13.00;10.57;;;7.60;1.00;;;;;;5070777;28;20843;-62
2022/01/19 11:05:58;;;;;;;12.83;9.77;;;7.90;1.00;;;;;;5070260;28;20457;-61
2022/01/19 11:08:25;;;;;;;15.10;10.40;;;7.80;1.00;;;;;;5070738;28;20506;-64
2022/01/19 11:10:54;;;;;;;14.80;10.57;;;7.70;1.00;;;;;;5070775;28;20455;-63
2022/01/19 11:13:31;;;;;;;15.00;9.53;;;7.70;1.00;;;;;;5070330;28;20532;-63
2022/01/19 11:15:59;;;;;;;12.27;9.90;;;7.80;1.00;;;;;;5071646;28;20526;-63
2022/01/19 11:18:26;;;;;;;11.33;8.93;;;7.90;1.00;;;;;;5073868;28;20449;-64
2022/01/19 11:20:53;;;;;;;13.67;9.90;;;7.90;1.00;;;;;;5070197;28;20416;-64
2022/01/19 11:23:37;;;;;;;13.60;10.53;;;8.00;1.00;;;;;;5071894;28;20755;-64
2022/01/19 11:26:07;;;;;;;14.40;10.67;;;8.20;1.00;;;;;;5070025;28;20569;-64
2022/01/19 11:28:44;;;;;;;16.13;9.97;;;8.20;1.00;;;;;;5066216;28;20447;-64
2022/01/19 11:31:35;;;;;;;13.70;9.83;;;8.40;1.00;;;;;;5072829;28;20441;-63
2022/01/19 11:34:01;;;;;;;13.43;10.53;;;8.50;1.00;;;;;;5074081;28;20494;-63
2022/01/19 11:36:27;;;;;;;12.90;10.40;;;8.50;1.00;;;;;;5075423;28;20582;-64
2022/01/19 11:39:08;;;;;;;13.33;10.03;;;8.50;1.00;;;;;;5070416;28;20235;-63
2022/01/19 11:41:37;;;;;;;12.93;8.93;;;8.50;1.00;;;;;;5071361;28;20451;-63
2022/01/19 11:44:05;;;;;;;12.87;10.80;;;8.50;1.00;;;;;;5065514;28;20451;-62
2022/01/19 11:46:43;;;;;;;12.20;10.10;;;8.50;1.00;;;;;;5071370;28;20470;-61
2022/01/19 11:49:10;;;;;;;11.60;9.80;;;8.50;1.00;;;;;;5073374;28;20429;-63
2022/01/19 11:51:38;;;;;;;11.83;9.43;;;8.50;1.00;;;;;;5085988;28;20450;-63
2022/01/19 11:54:21;;;;;;;12.63;9.40;;;8.50;1.00;;;;;;5086794;28;20432;-62
2022/01/19 11:56:58;;;;;;;13.70;9.83;;;8.50;1.00;;;;;;5082474;28;20462;-62
2022/01/19 11:59:30;;;;;;;9.97;8.17;;;8.60;1.00;;;;;;5071477;28;20972;-61
2022/01/19 12:02:21;;;;;;;12.93;9.33;;;8.60;1.00;;;;;;5069787;28;20411;-63
2022/01/19 12:04:52;;;;;;;12.20;8.77;;;8.70;1.00;;;;;;5070623;28;20472;-63
2022/01/19 12:07:37;;;;;;;12.73;9.60;;;8.80;1.00;;;;;;5083537;28;20831;-61
2022/01/19 12:10:44;;;;;;;13.30;10.77;;;8.40;1.00;;;;;;5076991;28;20528;-63
2022/01/19 12:16:20;;;;;;;12.20;9.03;;;8.90;1.00;;;;;;5081181;28;20476;-64
2022/01/19 12:18:54;;;;;;;11.30;9.53;;;9.00;1.00;;;;;;5072886;28;20441;-63
2022/01/19 12:21:32;;;;;;;13.47;10.70;;;9.00;1.00;;;;;;5077953;28;20573;-63
2022/01/19 12:24:26;;;;;;;12.53;10.23;;;9.20;1.00;;;;;;5081193;28;20464;-63
2022/01/19 12:27:15;;;;;;;14.60;11.33;;;9.00;1.00;;;;;;5078393;28;20475;-59
2022/01/19 12:29:40;;;;;;;10.80;9.67;;;9.00;1.00;;;;;;5081827;28;20411;-60
2022/01/19 12:32:18;;;;;;;10.47;8.23;;;9.00;1.00;;;;;;5081370;28;20466;-60
2022/01/19 12:34:46;;;;;;;10.50;9.40;;;9.00;1.00;;;;;;5073126;28;20197;-59
2022/01/19 12:37:13;;;;;;;10.80;9.70;;;8.90;1.00;;;;;;5073340;28;20980;-60
2022/01/19 12:39:42;;;;;;;12.30;9.37;;;8.90;1.00;;;;;;5077966;28;20441;-59
2022/01/19 12:42:38;;;;;;;12.70;10.07;;;8.90;1.00;;;;;;5072847;28;21168;-59
2022/01/19 12:45:15;;;;;;;16.53;9.73;;;8.70;1.00;;;;;;5073036;28;20836;-60
2022/01/19 12:47:41;;;;;;;10.17;8.37;;;8.70;1.00;;;;;;5072677;28;20930;-60
2022/01/19 12:50:06;;;;;;;11.30;8.80;;;8.60;1.00;;;;;;5075603;28;20486;-60
2022/01/19 12:52:33;;;;;;;9.40;8.40;;;8.50;1.00;;;;;;5068221;28;20791;-59
2022/01/19 12:55:09;;;;;;;19.73;9.37;;;8.50;1.00;;;;;;5075044;28;20227;-58
2022/01/19 12:57:35;;;;;;;14.90;8.27;;;8.50;1.00;;;;;;5072577;28;20929;-60
2022/01/19 13:00:04;;;;;;;9.57;8.57;;;8.40;1.00;;;;;;5071794;28;20502;-57
2022/01/19 13:02:30;;;;;;;10.73;9.60;;;8.40;1.00;;;;;;5072174;28;20182;-58
2022/01/19 13:05:08;;;;;;;11.50;8.50;;;8.30;1.00;;;;;;5072035;28;20512;-59
2022/01/19 13:07:37;;;;;;;10.50;8.50;;;8.40;1.00;;;;;;5072113;28;20175;-59
2022/01/19 13:12:59;;;;;;;15.13;9.77;;;8.30;1.00;;;;;;5072510;28;20433;-57
2022/01/19 13:15:39;;;;;;;10.20;8.70;;;8.30;1.00;;;;;;5092124;28;20414;-59
2022/01/19 13:18:04;;;;;;;11.00;8.50;;;8.10;1.00;;;;;;5091356;28;20430;-60
2022/01/19 13:20:31;;;;;;;10.13;9.00;;;8.10;1.00;;;;;;5081679;28;20952;-59
2022/01/19 13:22:57;;;;;;;9.60;8.60;;;8.00;1.00;;;;;;5085844;28;20285;-59
2022/01/19 13:25:32;;;;;;;9.47;8.10;;;8.00;1.00;;;;;;5082445;28;20492;-59
2022/01/19 13:28:00;;;;;;;8.97;8.07;;;8.00;1.00;;;;;;5072093;28;20465;-59
2022/01/19 13:30:31;;;;;;;21.63;9.43;;;8.00;1.00;;;;;;5071987;28;20507;-59
2022/01/19 13:32:57;;;;;;;9.30;8.20;;;8.00;1.00;;;;;;5075331;28;20517;-59
2022/01/19 13:35:25;;;;;;;9.63;8.13;;;7.90;1.00;;;;;;5085611;28;20423;-59
2022/01/19 13:37:56;;;;;;;10.30;8.20;;;7.90;1.00;;;;;;5092025;28;20433;-59
2022/01/19 13:40:33;;;;;;;9.47;6.80;;;7.90;1.00;;;;;;5073094;28;20473;-58
2022/01/19 13:43:03;;;;;;;11.27;8.30;;;7.80;1.00;;;;;;5071676;28;20415;-58
2022/01/19 13:50:44;;;;;;;8.83;7.40;;;7.80;1.00;;;;;;5071652;28;20403;-59
2022/01/19 13:53:11;;;;;;;7.33;6.63;;;7.80;1.00;;;;;;5077347;28;20463;-59
2022/01/19 13:55:37;;;;;;;8.50;6.93;;;7.70;1.00;;;;;;5073743;28;20411;-60
2022/01/19 13:58:14;;;;;;;8.13;7.17;;;7.70;1.00;;;;;;5091613;28;20818;-60
2022/01/19 14:00:50;;;;;;;8.67;7.60;;;7.70;1.00;;;;;;5080688;28;20223;-59
2022/01/19 14:03:16;;;;;;;8.33;7.53;;;7.70;1.00;;;;;;5070660;28;20810;-59
2022/01/19 14:05:46;;;;;;;11.03;8.53;;;7.70;1.00;;;;;;5071084;28;20507;-60
2022/01/19 14:08:12;;;;;;;10.90;8.40;;;7.70;1.00;;;;;;5087327;28;20216;-60
2022/01/19 14:10:48;;;;;;;8.97;7.60;;;7.70;1.00;;;;;;5091570;28;20903;-58
2022/01/19 14:13:26;;;;;;;8.23;7.40;;;7.60;1.00;;;;;;5058974;28;20792;-60
2022/01/19 14:15:55;;;;;;;7.57;6.40;;;7.60;1.00;;;;;;5071461;28;20425;-58
2022/01/19 14:18:21;;;;;;;9.97;7.23;;;7.50;1.00;;;;;;5073115;28;20447;-59
2022/01/19 14:21:05;;;;;;;8.77;7.00;;;7.40;1.00;;;;;;5070543;28;20532;-60
2022/01/19 14:23:30;;;;;;;7.70;6.90;;;7.40;1.00;;;;;;5088216;28;20197;-60
2022/01/19 14:26:07;;;;;;;8.17;6.90;;;7.40;1.00;;;;;;5090113;28;20451;-59
2022/01/19 14:28:33;;;;;;;8.10;7.30;;;7.50;1.00;;;;;;5070811;28;20217;-59
2022/01/19 14:31:04;;;;;;;6.63;6.03;;;7.50;1.00;;;;;;5071081;28;20562;-59
2022/01/19 14:33:30;;;;;;;8.20;6.53;;;7.40;1.00;;;;;;5071002;28;20433;-57
2022/01/19 14:35:57;;;;;;;7.80;6.50;;;7.40;1.00;;;;;;5070747;28;20571;-59
2022/01/19 14:38:36;;;;;;;6.30;5.70;;;7.40;1.00;;;;;;5070708;28;20506;-59
2022/01/19 14:41:17;;;;;;;7.10;6.03;;;7.30;1.00;;;;;;5069620;28;20443;-59
2022/01/19 14:43:57;;;;;;;7.63;6.37;;;7.20;1.00;;;;;;5070826;28;20911;-59